createdAt,value
2023-05-16T00:00:17.255Z,85.68
2023-05-16T00:02:47.928Z,85.94
2023-05-16T00:05:16.346Z,85.18
2023-05-16T00:07:45.177Z,84.74
2023-05-16T00:10:13.542Z,85.12
2023-05-16T00:12:41.783Z,84.87
2023-05-16T00:15:14.018Z,84.24
2023-05-16T00:17:43.730Z,84.57
2023-05-16T00:20:14.322Z,85.17
2023-05-16T00:22:42.769Z,85.05
2023-05-16T00:25:10.786Z,84.32
2023-05-16T00:27:38.747Z,84.75
2023-05-16T00:30:07.741Z,84.29
2023-05-16T00:32:36.647Z,84.58
2023-05-16T00:35:05.017Z,85.24
2023-05-16T00:37:34.341Z,85.51
2023-05-16T00:40:02.160Z,85.02
2023-05-16T00:42:30.011Z,85.81
2023-05-16T00:44:57.953Z,84.90
2023-05-16T00:47:25.909Z,85.46
2023-05-16T00:49:53.980Z,85.58
2023-05-16T00:52:21.853Z,84.67
2023-05-16T00:54:51.827Z,85.19
2023-05-16T00:57:20.007Z,84.36
2023-05-16T00:59:48.389Z,84.36
2023-05-16T01:02:16.991Z,84.42
2023-05-16T01:04:45.935Z,84.16
2023-05-16T01:07:13.736Z,84.10
2023-05-16T01:09:41.994Z,83.03
2023-05-16T01:12:17.440Z,82.44
2023-05-16T01:14:52.859Z,83.06
2023-05-16T01:17:24.744Z,82.71
2023-05-16T01:20:12.205Z,82.40
2023-05-16T01:23:02.740Z,82.11
2023-05-16T01:25:41.121Z,81.93
2023-05-16T01:28:11.190Z,81.33
2023-05-16T01:30:41.283Z,81.55
2023-05-16T01:33:09.387Z,81.81
2023-05-16T01:35:54.996Z,81.73
2023-05-16T01:38:28.642Z,81.35
2023-05-16T01:41:05.552Z,80.72
2023-05-16T01:43:38.300Z,81.33
2023-05-16T01:46:11.823Z,80.67
2023-05-16T01:48:48.626Z,80.23
2023-05-16T01:51:16.849Z,79.98
2023-05-16T01:53:45.467Z,80.09
2023-05-16T01:56:17.126Z,80.45
2023-05-16T01:58:47.942Z,80.29
2023-05-16T02:01:15.761Z,79.86
2023-05-16T02:03:43.631Z,80.49
2023-05-16T02:06:11.531Z,79.67
2023-05-16T02:08:39.292Z,79.26
2023-05-16T02:11:07.148Z,79.69
2023-05-16T02:13:34.947Z,79.50
2023-05-16T02:16:04.304Z,79.71
2023-05-16T02:18:32.140Z,79.79
2023-05-16T02:21:00.331Z,79.53
2023-05-16T02:23:28.205Z,78.97
2023-05-16T02:25:56.043Z,79.78
2023-05-16T02:28:23.788Z,79.14
2023-05-16T02:30:58.213Z,79.44
2023-05-16T02:33:28.144Z,78.89
2023-05-16T02:35:56.183Z,79.27
2023-05-16T02:38:23.968Z,79.14
2023-05-16T02:40:51.767Z,78.93
2023-05-16T02:43:19.588Z,78.68
2023-05-16T02:45:47.418Z,78.87
2023-05-16T02:48:15.265Z,78.90
2023-05-16T02:50:44.419Z,77.83
2023-05-16T02:53:14.157Z,77.61
2023-05-16T02:55:42.042Z,78.29
2023-05-16T02:58:09.808Z,78.12
2023-05-16T03:00:37.949Z,78.14
2023-05-16T03:03:05.867Z,78.72
2023-05-16T03:05:33.616Z,78.49
2023-05-16T03:08:03.154Z,78.74
2023-05-16T03:10:34.058Z,79.12
2023-05-16T03:13:01.932Z,79.62
2023-05-16T03:15:29.821Z,78.65
2023-05-16T03:17:57.821Z,79.00
2023-05-16T03:20:25.591Z,78.42
2023-05-16T03:22:53.430Z,78.82
2023-05-16T03:25:22.734Z,79.41
2023-05-16T03:27:50.497Z,79.04
2023-05-16T03:30:18.406Z,78.89
2023-05-16T03:32:46.450Z,78.73
2023-05-16T03:35:14.317Z,79.23
2023-05-16T03:37:42.141Z,79.91
2023-05-16T03:40:11.275Z,79.64
2023-05-16T03:42:40.478Z,78.77
2023-05-16T03:45:09.390Z,78.62
2023-05-16T03:47:37.245Z,78.71
2023-05-16T03:50:05.854Z,79.03
2023-05-16T03:52:33.708Z,79.18
2023-05-16T03:55:01.982Z,78.74
2023-05-16T03:57:32.820Z,79.34
2023-05-16T04:00:02.015Z,78.50
2023-05-16T04:02:29.923Z,78.75
2023-05-16T04:04:57.790Z,78.25
2023-05-16T04:07:25.703Z,78.27
2023-05-16T04:09:53.506Z,78.87
2023-05-16T04:12:21.751Z,78.31
2023-05-16T04:14:49.639Z,78.34
2023-05-16T04:17:18.769Z,78.80
2023-05-16T04:19:46.483Z,78.79
2023-05-16T04:22:14.231Z,77.84
2023-05-16T04:24:42.130Z,78.64
2023-05-16T04:27:09.950Z,77.18
2023-05-16T04:29:38.082Z,77.36
2023-05-16T04:32:07.628Z,77.27
2023-05-16T04:34:39.822Z,77.32
2023-05-16T04:37:09.458Z,76.94
2023-05-16T04:39:37.962Z,76.76
2023-05-16T04:42:07.429Z,76.67
2023-05-16T04:44:35.711Z,76.87
2023-05-16T04:47:03.533Z,77.20
2023-05-16T04:49:31.315Z,76.83
2023-05-16T04:52:00.490Z,76.48
2023-05-16T04:54:28.414Z,76.35
2023-05-16T04:56:57.316Z,76.72
2023-05-16T04:59:25.104Z,76.67
2023-05-16T05:01:52.950Z,76.23
2023-05-16T05:04:20.818Z,77.22
2023-05-16T05:06:48.609Z,76.74
2023-05-16T05:09:17.950Z,75.77
2023-05-16T05:11:46.457Z,75.55
2023-05-16T05:14:14.209Z,75.07
2023-05-16T05:16:41.969Z,74.67
2023-05-16T05:19:10.011Z,73.55
2023-05-16T05:21:38.006Z,73.29
2023-05-16T05:24:06.316Z,73.35
2023-05-16T05:26:35.597Z,72.46
2023-05-16T05:29:05.851Z,71.38
2023-05-16T05:31:35.072Z,72.28
2023-05-16T05:34:03.607Z,71.82
2023-05-16T05:36:31.611Z,72.04
2023-05-16T05:38:59.327Z,72.25
2023-05-16T05:41:27.393Z,72.67
2023-05-16T05:43:56.495Z,72.27
2023-05-16T05:46:25.725Z,72.18
2023-05-16T05:48:53.767Z,72.85
2023-05-16T05:51:21.654Z,73.77
2023-05-16T05:53:50.000Z,72.05
2023-05-16T05:56:27.535Z,71.47
2023-05-16T05:58:56.843Z,71.23
2023-05-16T06:01:25.007Z,71.59
2023-05-16T06:03:52.933Z,71.94
2023-05-16T06:06:20.874Z,71.31
2023-05-16T06:08:48.881Z,71.17
2023-05-16T06:11:16.686Z,70.86
2023-05-16T06:13:44.480Z,70.90
2023-05-16T06:16:13.881Z,71.25
2023-05-16T06:18:42.449Z,71.06
2023-05-16T06:21:10.633Z,69.50
2023-05-16T06:23:41.818Z,68.72
2023-05-16T06:26:09.702Z,69.38
2023-05-16T06:28:40.828Z,69.58
2023-05-16T06:31:08.651Z,68.68
2023-05-16T06:33:38.204Z,68.40
2023-05-16T06:36:06.525Z,69.85
2023-05-16T06:38:34.262Z,67.43
2023-05-16T06:41:04.797Z,67.54
2023-05-16T06:43:32.673Z,67.94
2023-05-16T06:46:00.516Z,66.46
2023-05-16T06:48:28.627Z,65.95
2023-05-16T06:50:57.864Z,65.30
2023-05-16T06:53:26.074Z,63.76
2023-05-16T06:55:54.343Z,63.38
2023-05-16T06:58:22.299Z,63.43
2023-05-16T07:00:50.725Z,64.54
2023-05-16T07:03:20.547Z,63.02
2023-05-16T07:05:48.550Z,61.95
2023-05-16T07:08:17.753Z,61.93
2023-05-16T07:11:07.757Z,61.58
2023-05-16T07:13:39.338Z,62.19
2023-05-16T07:16:08.574Z,60.52
2023-05-16T07:18:37.001Z,60.41
2023-05-16T07:21:05.881Z,59.61
2023-05-16T07:23:38.132Z,59.40
2023-05-16T07:26:06.080Z,59.31
2023-05-16T07:28:33.947Z,59.35
2023-05-16T07:31:01.808Z,59.85
2023-05-16T07:33:29.665Z,59.66
2023-05-16T07:36:07.729Z,59.05
2023-05-16T07:38:45.357Z,59.84
2023-05-16T07:41:52.261Z,59.33
2023-05-16T07:44:20.262Z,57.40
2023-05-16T07:46:48.144Z,58.10
2023-05-16T07:49:30.995Z,57.65
2023-05-16T07:51:58.949Z,56.02
2023-05-16T07:54:28.341Z,55.81
2023-05-16T07:56:59.290Z,57.00
2023-05-16T07:59:27.194Z,56.84
2023-05-16T08:01:56.773Z,55.54
2023-05-16T08:04:24.759Z,55.75
2023-05-16T08:06:52.536Z,54.97
2023-05-16T08:09:20.773Z,55.57
2023-05-16T08:11:50.044Z,56.23
2023-05-16T08:14:18.773Z,55.64
2023-05-16T08:16:47.629Z,55.84
2023-05-16T08:19:15.761Z,57.21
2023-05-16T08:21:43.822Z,53.31
2023-05-16T08:24:12.215Z,52.84
2023-05-16T08:26:40.207Z,52.45
2023-05-16T08:29:09.577Z,53.47
2023-05-16T08:31:41.297Z,53.17
2023-05-16T08:34:10.370Z,52.32
2023-05-16T08:36:39.040Z,52.90
2023-05-16T08:39:07.562Z,52.29
2023-05-16T08:41:38.198Z,53.17
2023-05-16T08:44:06.581Z,54.12
2023-05-16T08:46:39.003Z,52.52
2023-05-16T08:49:08.165Z,52.53
2023-05-16T08:51:38.667Z,51.05
2023-05-16T08:54:14.458Z,51.43
2023-05-16T08:56:43.298Z,49.97
2023-05-16T08:59:12.416Z,49.70
2023-05-16T09:01:42.578Z,50.77
2023-05-16T09:04:11.219Z,51.79
2023-05-16T09:06:39.194Z,51.51
2023-05-16T09:09:08.411Z,50.54
2023-05-16T09:11:43.917Z,51.12
2023-05-16T09:14:16.693Z,51.92
2023-05-16T09:17:04.151Z,51.15
2023-05-16T09:19:40.478Z,50.92
2023-05-16T09:22:10.540Z,50.51
2023-05-16T09:24:40.782Z,49.54
2023-05-16T09:27:12.283Z,49.71
2023-05-16T09:29:42.360Z,50.68
2023-05-16T09:32:14.564Z,51.12
2023-05-16T09:34:45.310Z,51.26
2023-05-16T09:37:15.429Z,51.15
2023-05-16T09:39:48.717Z,51.73
2023-05-16T09:42:16.835Z,52.47
2023-05-16T09:44:47.908Z,52.90
2023-05-16T09:47:17.615Z,52.38
2023-05-16T09:49:45.734Z,52.95
2023-05-16T09:52:14.302Z,53.93
2023-05-16T09:54:42.373Z,53.75
2023-05-16T09:57:10.562Z,53.62
2023-05-16T09:59:39.768Z,53.74
2023-05-16T10:02:08.551Z,52.85
2023-05-16T10:04:39.938Z,52.28
2023-05-16T10:07:09.832Z,53.29
2023-05-16T10:09:40.762Z,52.78
2023-05-16T10:12:14.261Z,51.87
2023-05-16T10:14:46.469Z,51.10
2023-05-16T10:17:17.169Z,51.33
2023-05-16T10:19:47.938Z,51.38
2023-05-16T10:22:17.697Z,51.97
2023-05-16T10:24:52.005Z,51.86
2023-05-16T10:27:20.379Z,53.97
2023-05-16T10:29:54.773Z,51.32
2023-05-16T10:32:25.055Z,48.29
2023-05-16T10:34:55.660Z,48.82
2023-05-16T10:37:24.645Z,49.73
2023-05-16T10:39:53.486Z,47.78
2023-05-16T10:42:22.088Z,48.71
2023-05-16T10:45:02.016Z,47.08
2023-05-16T10:47:33.244Z,45.99
2023-05-16T10:50:02.505Z,47.87
2023-05-16T10:52:35.009Z,46.02
2023-05-16T10:55:05.362Z,46.76
2023-05-16T10:57:36.775Z,48.09
2023-05-16T11:00:10.395Z,47.53
2023-05-16T11:02:42.828Z,45.75
2023-05-16T11:05:19.063Z,44.67
2023-05-16T11:08:05.414Z,43.76
2023-05-16T11:10:33.732Z,44.87
2023-05-16T11:13:08.493Z,47.39
2023-05-16T11:15:36.778Z,49.63
2023-05-16T11:18:09.023Z,52.60
2023-05-16T11:20:39.711Z,54.36
2023-05-16T11:23:21.693Z,55.22
2023-05-16T11:25:52.823Z,55.94
2023-05-16T11:28:22.113Z,55.34
2023-05-16T11:30:52.073Z,54.33
2023-05-16T11:33:20.388Z,53.92
2023-05-16T11:38:43.419Z,52.79
2023-05-16T11:41:11.617Z,52.47
2023-05-16T11:43:41.821Z,51.57
2023-05-16T11:46:12.898Z,51.06
2023-05-16T11:48:41.683Z,51.47
2023-05-16T11:51:11.876Z,49.48
2023-05-16T11:53:39.704Z,47.64
2023-05-16T11:56:09.316Z,47.36
2023-05-16T11:58:38.376Z,44.70
2023-05-16T12:01:06.743Z,44.17
2023-05-16T12:03:42.741Z,41.31
2023-05-16T12:06:12.061Z,44.05
2023-05-16T12:08:39.841Z,43.48
2023-05-16T12:11:07.718Z,44.05
2023-05-16T12:13:37.492Z,44.43
2023-05-16T12:16:06.047Z,42.28
2023-05-16T12:18:34.201Z,43.56
2023-05-16T12:21:02.272Z,44.64
2023-05-16T12:23:31.615Z,43.09
2023-05-16T12:26:01.618Z,43.89
2023-05-16T12:28:34.110Z,43.48
2023-05-16T12:31:02.151Z,44.06
2023-05-16T12:33:30.142Z,40.25
2023-05-16T12:35:59.487Z,38.24
2023-05-16T12:38:27.763Z,39.66
2023-05-16T12:41:07.689Z,40.27
2023-05-16T12:43:38.256Z,41.56
2023-05-16T12:46:12.713Z,39.93
2023-05-16T12:48:42.004Z,40.71
2023-05-16T12:51:14.823Z,41.12
2023-05-16T12:53:54.410Z,41.52
2023-05-16T12:56:31.592Z,40.80
2023-05-16T12:58:59.456Z,40.28
2023-05-16T13:01:27.513Z,39.34
2023-05-16T13:03:55.518Z,40.46
2023-05-16T13:06:23.498Z,40.45
2023-05-16T13:08:51.431Z,40.71
2023-05-16T13:11:19.901Z,40.22
2023-05-16T13:13:49.098Z,40.61
2023-05-16T13:16:17.380Z,39.55
2023-05-16T13:18:45.921Z,40.54
2023-05-16T13:21:13.837Z,39.84
2023-05-16T13:23:41.579Z,40.73
2023-05-16T13:26:09.785Z,41.28
2023-05-16T13:28:38.138Z,40.81
2023-05-16T13:31:07.813Z,41.80
2023-05-16T13:33:38.961Z,41.95
2023-05-16T13:36:09.015Z,42.40
2023-05-16T13:38:41.363Z,42.11
2023-05-16T13:41:09.269Z,42.36
2023-05-16T13:43:37.069Z,43.04
2023-05-16T13:46:05.286Z,42.68
2023-05-16T13:48:34.559Z,43.06
2023-05-16T13:51:02.480Z,42.72
2023-05-16T13:53:30.299Z,42.54
2023-05-16T13:55:58.058Z,42.21
2023-05-16T13:58:27.202Z,42.42
2023-05-16T14:00:55.071Z,42.03
2023-05-16T14:03:23.346Z,41.72
2023-05-16T14:05:52.690Z,43.03
2023-05-16T14:08:20.472Z,42.21
2023-05-16T14:10:48.216Z,40.28
2023-05-16T14:13:16.326Z,40.11
2023-05-16T14:15:44.185Z,39.81
2023-05-16T14:18:15.981Z,38.34
2023-05-16T14:20:43.887Z,38.67
2023-05-16T14:23:13.129Z,38.48
2023-05-16T14:25:41.184Z,38.89
2023-05-16T14:28:09.031Z,39.97
2023-05-16T14:30:38.712Z,40.30
2023-05-16T14:33:07.102Z,40.77
2023-05-16T14:35:34.924Z,41.22
2023-05-16T14:38:02.757Z,41.31
2023-05-16T14:40:31.937Z,41.53
2023-05-16T14:42:59.743Z,41.47
2023-05-16T14:45:27.870Z,42.05
2023-05-16T14:47:55.892Z,42.03
2023-05-16T14:50:24.850Z,42.60
2023-05-16T14:52:52.909Z,43.05
2023-05-16T14:55:21.680Z,42.76
2023-05-16T14:57:57.099Z,43.39
2023-05-16T15:00:27.707Z,43.47
2023-05-16T15:02:55.862Z,43.75
2023-05-16T15:05:25.607Z,43.44
2023-05-16T15:07:53.514Z,43.62
2023-05-16T15:10:21.394Z,43.58
2023-05-16T15:12:50.541Z,45.06
2023-05-16T15:15:18.607Z,44.48
2023-05-16T15:17:46.460Z,45.38
2023-05-16T15:20:14.448Z,45.29
2023-05-16T15:22:42.643Z,45.58
2023-05-16T15:25:11.833Z,45.89
2023-05-16T15:27:39.629Z,45.88
2023-05-16T15:30:10.929Z,46.36
2023-05-16T15:32:38.836Z,46.85
2023-05-16T15:35:07.244Z,48.11
2023-05-16T15:37:35.171Z,48.73
2023-05-16T15:40:04.524Z,49.83
2023-05-16T15:42:32.387Z,49.88
2023-05-16T15:45:00.226Z,50.22
2023-05-16T15:47:29.697Z,51.00
2023-05-16T15:49:57.582Z,49.94
2023-05-16T15:52:25.359Z,47.89
2023-05-16T15:54:53.204Z,46.62
2023-05-16T15:57:21.138Z,47.48
2023-05-16T15:59:49.056Z,47.21
2023-05-16T16:02:26.934Z,47.01
2023-05-16T16:04:56.394Z,46.93
2023-05-16T16:07:30.978Z,47.36
2023-05-16T16:10:08.089Z,48.50
2023-05-16T16:12:37.192Z,48.67
2023-05-16T16:15:09.265Z,48.53
2023-05-16T16:17:37.340Z,49.00
2023-05-16T16:20:07.737Z,49.23
2023-05-16T16:22:35.879Z,49.82
2023-05-16T16:25:03.874Z,49.75
2023-05-16T16:27:31.819Z,49.74
2023-05-16T16:29:59.653Z,49.72
2023-05-16T16:32:27.830Z,50.56
2023-05-16T16:34:56.069Z,50.28
2023-05-16T16:37:25.691Z,50.34
2023-05-16T16:39:53.521Z,50.54
2023-05-16T16:42:21.321Z,50.61
2023-05-16T16:44:51.624Z,50.62
2023-05-16T16:47:19.974Z,50.33
2023-05-16T16:49:47.896Z,50.66
2023-05-16T16:52:15.825Z,50.76
2023-05-16T16:54:45.012Z,51.41
2023-05-16T16:57:12.969Z,51.96
2023-05-16T16:59:40.960Z,51.54
2023-05-16T17:02:11.982Z,51.86
2023-05-16T17:04:40.038Z,52.02
2023-05-16T17:07:08.558Z,52.45
2023-05-16T17:09:37.032Z,52.91
2023-05-16T17:12:17.617Z,52.83
2023-05-16T17:14:46.065Z,53.58
2023-05-16T17:17:20.825Z,53.38
2023-05-16T17:19:48.780Z,53.29
2023-05-16T17:22:16.608Z,52.85
2023-05-16T17:24:45.386Z,53.16
2023-05-16T17:27:14.698Z,53.31
2023-05-16T17:29:42.568Z,53.63
2023-05-16T17:32:12.108Z,54.00
2023-05-16T17:37:24.244Z,54.56
2023-05-16T17:40:05.877Z,53.97
2023-05-16T17:42:35.451Z,54.70
2023-05-16T17:45:04.820Z,54.86
2023-05-16T17:47:33.118Z,54.44
2023-05-16T17:50:01.416Z,54.63
2023-05-16T17:52:29.482Z,54.99
2023-05-16T17:54:57.295Z,55.01
2023-05-16T17:57:25.104Z,55.33
2023-05-16T17:59:54.315Z,55.06
2023-05-16T18:02:22.134Z,55.36
2023-05-16T18:04:49.978Z,55.23
2023-05-16T18:07:17.730Z,54.82
2023-05-16T18:09:45.584Z,54.58
2023-05-16T18:12:13.419Z,55.21
2023-05-16T18:14:43.141Z,55.67
2023-05-16T18:17:14.478Z,55.33
2023-05-16T18:19:42.618Z,55.67
2023-05-16T18:22:12.321Z,55.93
2023-05-16T18:24:44.637Z,56.32
2023-05-16T18:27:12.605Z,56.39
2023-05-16T18:29:40.442Z,56.25
2023-05-16T18:32:09.095Z,56.15
2023-05-16T18:34:38.551Z,56.28
2023-05-16T18:37:08.745Z,56.06
2023-05-16T18:39:37.663Z,56.10
2023-05-16T18:42:05.566Z,56.47
2023-05-16T18:44:48.248Z,56.12
2023-05-16T18:47:17.029Z,56.53
2023-05-16T18:49:46.230Z,56.37
2023-05-16T18:52:14.756Z,56.67
2023-05-16T18:54:42.805Z,56.66
2023-05-16T18:57:14.416Z,56.73
2023-05-16T18:59:42.392Z,56.90
2023-05-16T19:02:10.316Z,56.73
2023-05-16T19:04:38.450Z,56.75
2023-05-16T19:07:09.253Z,57.01
2023-05-16T19:09:39.630Z,57.02
2023-05-16T19:12:07.813Z,57.05
2023-05-16T19:14:35.973Z,57.62
2023-05-16T19:17:03.834Z,57.45
2023-05-16T19:19:32.501Z,57.48
2023-05-16T19:22:00.449Z,57.74
2023-05-16T19:24:29.731Z,57.71
2023-05-16T19:26:57.519Z,57.82
2023-05-16T19:29:25.383Z,57.81
2023-05-16T19:31:53.213Z,58.16
2023-05-16T19:34:21.478Z,57.83
2023-05-16T19:36:49.393Z,57.98
2023-05-16T19:39:17.232Z,58.33
2023-05-16T19:41:51.710Z,58.42
2023-05-16T19:44:20.153Z,58.70
2023-05-16T19:46:48.081Z,58.55
2023-05-16T19:49:26.775Z,58.76
2023-05-16T19:51:55.862Z,59.00
2023-05-16T19:54:23.807Z,58.82
2023-05-16T19:56:53.089Z,59.15
2023-05-16T19:59:22.455Z,59.01
2023-05-16T20:01:50.347Z,59.47
2023-05-16T20:04:18.263Z,59.70
2023-05-16T20:06:46.153Z,59.17
2023-05-16T20:09:14.701Z,59.52
2023-05-16T20:11:42.689Z,59.76
2023-05-16T20:14:11.895Z,59.57
2023-05-16T20:16:39.894Z,59.59
2023-05-16T20:19:16.746Z,60.02
2023-05-16T20:21:44.877Z,59.85
2023-05-16T20:24:12.825Z,60.33
2023-05-16T20:26:40.751Z,60.22
2023-05-16T20:29:08.567Z,60.70
2023-05-16T20:31:41.275Z,60.78
2023-05-16T20:34:09.191Z,61.15
2023-05-16T20:36:37.366Z,61.71
2023-05-16T20:39:09.031Z,61.94
2023-05-16T20:41:37.340Z,62.38
2023-05-16T20:44:06.891Z,62.24
2023-05-16T20:46:34.784Z,62.78
2023-05-16T20:49:04.368Z,63.07
2023-05-16T20:51:32.313Z,63.05
2023-05-16T20:54:00.576Z,62.98
2023-05-16T20:56:28.496Z,63.07
2023-05-16T20:58:56.586Z,63.16
2023-05-16T21:01:24.585Z,63.22
2023-05-16T21:03:52.576Z,63.16
2023-05-16T21:06:21.902Z,63.01
2023-05-16T21:09:04.728Z,63.23
2023-05-16T21:11:36.480Z,63.24
2023-05-16T21:14:04.783Z,63.25
2023-05-16T21:16:35.914Z,63.49
2023-05-16T21:19:04.480Z,64.01
2023-05-16T21:21:34.486Z,64.38
2023-05-16T21:24:08.294Z,64.38
2023-05-16T21:26:38.260Z,64.38
2023-05-16T21:29:10.903Z,64.27
2023-05-16T21:31:38.719Z,64.63
2023-05-16T21:34:06.658Z,64.81
2023-05-16T21:36:41.876Z,64.96
2023-05-16T21:39:09.983Z,65.23
2023-05-16T21:41:41.040Z,65.45
2023-05-16T21:44:08.931Z,65.73
2023-05-16T21:46:37.252Z,65.92
2023-05-16T21:49:05.191Z,66.74
2023-05-16T21:51:33.051Z,67.13
2023-05-16T21:54:03.323Z,66.82
2023-05-16T21:56:31.680Z,67.12
2023-05-16T21:59:01.789Z,67.29
2023-05-16T22:01:31.743Z,67.69
2023-05-16T22:03:59.908Z,67.67
2023-05-16T22:06:28.045Z,67.94
2023-05-16T22:09:05.052Z,68.10
2023-05-16T22:11:47.962Z,68.00
2023-05-16T22:14:55.450Z,68.43
2023-05-16T22:20:35.979Z,69.27
2023-05-16T22:23:19.790Z,69.48
2023-05-16T22:26:10.187Z,69.60
2023-05-16T22:29:02.950Z,69.97
2023-05-16T22:31:30.742Z,70.18
2023-05-16T22:33:58.607Z,70.19
2023-05-16T22:36:26.434Z,70.92
2023-05-16T22:38:54.247Z,71.00
2023-05-16T22:41:22.269Z,71.31
2023-05-16T22:43:51.438Z,71.70
2023-05-16T22:46:19.428Z,72.19
2023-05-16T22:48:47.300Z,72.62
2023-05-16T22:51:15.118Z,72.29
2023-05-16T22:53:42.896Z,72.12
2023-05-16T22:56:10.796Z,72.56
2023-05-16T22:58:38.623Z,72.96
2023-05-16T23:01:07.956Z,72.87
2023-05-16T23:03:36.172Z,72.87
2023-05-16T23:06:04.113Z,72.47
2023-05-16T23:08:31.932Z,72.88
2023-05-16T23:10:59.695Z,73.15
2023-05-16T23:13:27.536Z,73.09
2023-05-16T23:15:55.546Z,73.68
2023-05-16T23:18:25.033Z,73.90
2023-05-16T23:20:52.962Z,74.25
2023-05-16T23:23:20.867Z,74.39
2023-05-16T23:25:48.954Z,74.54
2023-05-16T23:28:16.807Z,74.09
2023-05-16T23:30:44.610Z,74.33
2023-05-16T23:33:12.976Z,74.26
2023-05-16T23:35:42.256Z,74.13
2023-05-16T23:38:10.068Z,74.29
2023-05-16T23:40:38.214Z,74.87
2023-05-16T23:43:05.988Z,74.52
2023-05-16T23:45:33.837Z,74.67
2023-05-16T23:48:01.710Z,75.28
2023-05-16T23:50:29.623Z,75.65
2023-05-16T23:52:58.750Z,75.42
2023-05-16T23:55:26.781Z,75.31
2023-05-16T23:57:54.674Z,75.39
